createdAt,value
2023-02-19T00:00:06.342Z,3.30
2023-02-19T13:03:53.796Z,7.85
2023-02-19T13:06:32.888Z,7.97
2023-02-19T13:09:08.383Z,10.85
2023-02-19T13:11:41.157Z,10.55
2023-02-19T13:14:20.280Z,13.27
2023-02-19T13:16:52.300Z,10.75
2023-02-19T13:19:21.620Z,13.43
2023-02-19T13:22:12.294Z,13.75
2023-02-19T13:24:43.175Z,20.17
2023-02-19T13:30:41.650Z,16.02
2023-02-19T13:33:23.822Z,16.20
2023-02-19T13:36:06.048Z,23.10
2023-02-19T13:38:37.676Z,21.35
2023-02-19T13:41:06.050Z,19.23
2023-02-19T13:43:38.837Z,25.05
2023-02-19T13:46:09.897Z,27.10
2023-02-19T13:48:38.855Z,26.23
2023-02-19T13:51:54.425Z,28.75
2023-02-19T13:54:26.892Z,36.85
2023-02-19T13:57:31.437Z,33.40
2023-02-19T14:00:00.032Z,32.50
2023-02-19T14:02:33.882Z,33.30
2023-02-19T14:05:04.357Z,36.08
2023-02-19T14:07:38.404Z,32.35
2023-02-19T14:10:14.610Z,38.83
2023-02-19T14:12:42.500Z,37.63
2023-02-19T14:15:44.005Z,37.45
2023-02-19T14:18:44.082Z,39.10
2023-02-19T14:21:25.540Z,41.90
2023-02-19T14:23:56.685Z,40.85
2023-02-19T14:26:27.553Z,48.30
2023-02-19T14:28:55.504Z,45.75
2023-02-19T14:31:30.101Z,50.28
2023-02-19T14:34:00.941Z,53.55
2023-02-19T14:36:44.134Z,63.47
2023-02-19T14:39:16.246Z,67.15
2023-02-19T14:41:49.382Z,67.65
2023-02-19T14:44:21.464Z,65.63
2023-02-19T14:46:56.517Z,69.90
2023-02-19T14:49:29.869Z,69.30
2023-02-19T14:52:01.257Z,69.95
2023-02-19T14:54:41.906Z,71.88
2023-02-19T14:57:18.034Z,73.63
2023-02-19T15:00:05.077Z,80.53
2023-02-19T15:02:33.588Z,80.10
2023-02-19T15:05:01.521Z,87.82
2023-02-19T15:07:34.197Z,91.43
2023-02-19T15:10:05.682Z,90.45
2023-02-19T15:12:46.024Z,97.95
2023-02-19T15:15:19.530Z,104.65
2023-02-19T15:17:47.735Z,112.03
2023-02-19T15:20:20.599Z,101.50
2023-02-19T15:22:48.717Z,110.40
2023-02-19T15:25:18.828Z,108.93
2023-02-19T15:27:48.491Z,116.22
2023-02-19T15:30:21.592Z,124.22
2023-02-19T15:32:56.578Z,127.95
2023-02-19T15:37:54.975Z,139.77
2023-02-19T15:40:27.642Z,134.43
2023-02-19T15:42:57.458Z,141.45
2023-02-19T15:45:29.549Z,144.13
2023-02-19T15:48:00.858Z,154.85
2023-02-19T15:50:31.452Z,144.52
2023-02-19T15:53:03.661Z,159.60
2023-02-19T15:55:36.468Z,145.65
2023-02-19T15:58:10.009Z,156.32
2023-02-19T16:00:42.546Z,151.43
2023-02-19T16:03:18.521Z,146.48
2023-02-19T16:05:47.052Z,149.68
2023-02-19T16:08:21.005Z,135.02
2023-02-19T16:10:56.778Z,116.30
2023-02-19T16:13:27.622Z,93.88
2023-02-19T16:16:02.953Z,82.63
2023-02-19T16:18:31.794Z,79.15
2023-02-19T16:21:00.495Z,72.40
2023-02-19T16:23:28.715Z,66.20
2023-02-19T16:26:01.176Z,68.75
2023-02-19T16:28:36.460Z,70.20
2023-02-19T16:31:06.695Z,69.28
2023-02-19T16:33:37.454Z,62.22
2023-02-19T16:36:41.698Z,67.72
2023-02-19T16:39:18.158Z,64.45
2023-02-19T16:42:19.730Z,64.93
2023-02-19T16:44:52.010Z,64.43
2023-02-19T16:47:36.922Z,65.60
2023-02-19T16:50:13.787Z,63.13
2023-02-19T16:52:52.507Z,56.65
2023-02-19T16:55:20.436Z,51.03
2023-02-19T16:57:48.364Z,61.42
2023-02-19T17:00:20.299Z,54.53
2023-02-19T17:02:49.176Z,58.85
2023-02-19T17:05:17.997Z,64.10
2023-02-19T17:07:45.907Z,57.28
2023-02-19T17:10:17.185Z,58.40
2023-02-19T17:12:45.021Z,62.13
2023-02-19T17:15:13.217Z,66.25
2023-02-19T17:17:42.566Z,73.13
2023-02-19T17:20:23.987Z,70.70
2023-02-19T17:22:52.001Z,72.47
2023-02-19T17:25:19.961Z,71.40
2023-02-19T17:27:47.915Z,69.82
2023-02-19T17:30:20.901Z,74.97
2023-02-19T17:32:50.222Z,74.57
2023-02-19T17:35:18.053Z,78.32
2023-02-19T17:37:45.928Z,73.70
2023-02-19T17:40:32.402Z,76.85
2023-02-19T17:43:01.524Z,75.25
2023-02-19T17:45:29.525Z,78.18
2023-02-19T17:47:59.340Z,80.60
2023-02-19T17:50:29.056Z,78.85
2023-02-19T17:52:56.963Z,79.50
2023-02-19T17:55:25.524Z,84.18
2023-02-19T17:57:54.425Z,86.75
2023-02-19T18:00:24.410Z,83.90
2023-02-19T18:02:52.591Z,78.45
2023-02-19T18:05:22.297Z,85.25
2023-02-19T18:07:50.827Z,80.95
2023-02-19T18:10:20.557Z,82.32
2023-02-19T18:12:48.754Z,106.82
2023-02-19T18:15:19.509Z,108.07
2023-02-19T18:17:47.461Z,106.22
2023-02-19T18:20:16.935Z,101.70
2023-02-19T18:22:46.193Z,109.47
2023-02-19T18:25:14.184Z,111.18
2023-02-19T18:27:42.096Z,105.93
2023-02-19T18:30:11.115Z,108.70
2023-02-19T18:32:39.443Z,29.80
2023-02-19T18:35:08.096Z,79.28
2023-02-19T18:37:35.970Z,91.07
2023-02-19T18:40:06.678Z,86.97
2023-02-19T18:42:34.709Z,95.15
2023-02-19T18:45:02.921Z,88.70
2023-02-19T18:47:30.782Z,87.10
2023-02-19T18:49:59.489Z,86.97
2023-02-19T18:52:28.064Z,94.18
2023-02-19T18:54:57.806Z,90.85
2023-02-19T18:57:27.263Z,92.15
2023-02-19T18:59:55.399Z,95.80
2023-02-19T19:02:23.524Z,88.15
2023-02-19T19:04:54.107Z,94.03
2023-02-19T19:07:22.418Z,88.75
2023-02-19T19:09:50.342Z,89.88
2023-02-19T19:12:18.561Z,89.85
2023-02-19T19:14:48.074Z,95.03
2023-02-19T19:17:16.139Z,91.07
2023-02-19T19:19:44.685Z,84.93
2023-02-19T19:22:12.649Z,76.88
2023-02-19T19:24:40.665Z,79.72
2023-02-19T19:27:08.507Z,68.00
2023-02-19T19:29:36.538Z,73.40
2023-02-19T19:32:08.108Z,67.10
2023-02-19T19:34:36.504Z,62.97
2023-02-19T19:37:04.423Z,70.13
2023-02-19T19:39:32.393Z,59.88
2023-02-19T19:42:00.251Z,60.13
2023-02-19T19:44:28.108Z,58.05
2023-02-19T19:46:56.350Z,65.07
2023-02-19T19:49:25.771Z,57.78
2023-02-19T19:51:53.602Z,55.70
2023-02-19T19:54:21.460Z,53.08
2023-02-19T19:56:50.824Z,57.95
2023-02-19T19:59:19.248Z,55.83
2023-02-19T20:01:51.708Z,59.47
2023-02-19T20:04:20.464Z,52.70
2023-02-19T20:06:50.101Z,53.33
2023-02-19T20:09:18.799Z,56.47
2023-02-19T20:11:48.579Z,47.65
2023-02-19T20:14:17.146Z,53.03
2023-02-19T20:16:47.386Z,51.03
2023-02-19T20:19:16.408Z,53.25
2023-02-19T20:21:45.600Z,51.30
2023-02-19T20:24:16.554Z,51.28
2023-02-19T20:26:44.928Z,45.55
2023-02-19T20:29:13.448Z,50.05
2023-02-19T20:31:41.366Z,52.25
2023-02-19T20:34:09.311Z,50.40
2023-02-19T20:36:43.692Z,48.40
2023-02-19T20:39:11.595Z,45.70
2023-02-19T20:41:40.828Z,44.92
2023-02-19T20:44:08.693Z,43.47
2023-02-19T20:46:42.112Z,43.55
2023-02-19T20:49:10.027Z,44.53
2023-02-19T20:51:44.373Z,48.28
2023-02-19T20:54:12.270Z,43.58
2023-02-19T20:56:46.089Z,49.60
2023-02-19T20:59:14.680Z,49.97
2023-02-19T21:01:42.808Z,48.60
2023-02-19T21:04:11.097Z,47.33
2023-02-19T21:06:39.189Z,46.20
2023-02-19T21:09:07.535Z,51.47
2023-02-19T21:11:35.377Z,52.10
2023-02-19T21:14:04.757Z,46.42
2023-02-19T21:16:33.582Z,43.75
2023-02-19T21:19:02.734Z,44.67
2023-02-19T21:21:31.813Z,43.72
2023-02-19T21:24:01.008Z,39.70
2023-02-19T21:26:35.306Z,43.08
2023-02-19T21:29:05.435Z,56.28
2023-02-19T21:31:37.722Z,49.03
2023-02-19T21:34:06.461Z,37.08
2023-02-19T21:36:34.345Z,35.33
2023-02-19T21:39:02.711Z,35.70
2023-02-19T21:41:30.622Z,40.80
2023-02-19T21:43:58.808Z,33.47
2023-02-19T21:46:28.350Z,39.72
2023-02-19T21:48:57.535Z,36.72
2023-02-19T21:51:30.931Z,39.60
2023-02-19T21:53:59.069Z,37.35
2023-02-19T21:56:30.054Z,36.13
2023-02-19T21:58:58.174Z,37.08
2023-02-19T22:01:29.903Z,43.47
2023-02-19T22:03:57.776Z,38.78
2023-02-19T22:06:29.080Z,35.80
2023-02-19T22:08:57.289Z,38.95
2023-02-19T22:11:25.413Z,41.05
2023-02-19T22:13:53.417Z,35.78
2023-02-19T22:16:21.805Z,43.22
2023-02-19T22:18:52.280Z,41.78
2023-02-19T22:21:21.259Z,42.47
2023-02-19T22:23:50.968Z,41.92
2023-02-19T22:26:20.072Z,34.38
2023-02-19T22:28:48.697Z,36.88
2023-02-19T22:31:17.396Z,40.67
2023-02-19T22:33:45.642Z,36.78
2023-02-19T22:36:19.564Z,36.38
2023-02-19T22:38:48.038Z,41.60
2023-02-19T22:41:16.749Z,38.92
2023-02-19T22:43:44.809Z,40.55
2023-02-19T22:46:16.062Z,37.78
2023-02-19T22:48:44.051Z,38.60
2023-02-19T22:51:14.563Z,39.85
2023-02-19T22:53:46.933Z,41.40
2023-02-19T22:56:16.729Z,43.67
2023-02-19T22:58:44.952Z,38.05
2023-02-19T23:01:14.724Z,38.08
2023-02-19T23:03:47.274Z,39.78
2023-02-19T23:06:15.599Z,37.45
2023-02-19T23:08:43.983Z,38.35
2023-02-19T23:11:14.234Z,37.33
2023-02-19T23:13:43.155Z,36.65
2023-02-19T23:16:11.915Z,34.97
2023-02-19T23:18:39.965Z,38.65
2023-02-19T23:21:08.368Z,37.92
2023-02-19T23:23:36.261Z,35.90
2023-02-19T23:26:04.601Z,37.83
2023-02-19T23:28:33.815Z,39.90
2023-02-19T23:31:03.177Z,41.10
2023-02-19T23:33:31.086Z,43.38
2023-02-19T23:35:58.969Z,42.17
2023-02-19T23:38:26.806Z,41.35
2023-02-19T23:40:54.781Z,39.30
2023-02-19T23:43:22.769Z,43.60
2023-02-19T23:45:52.186Z,45.42
2023-02-19T23:48:20.202Z,45.53
2023-02-19T23:50:48.144Z,45.15
2023-02-19T23:53:15.999Z,44.08
2023-02-19T23:55:44.010Z,42.65
2023-02-19T23:58:11.896Z,44.40
